Time;durP1;ratioP1;P1;durP2;ratioP2;P2;SDS_P1;SDS_P2;PMS_P1;PMS_P2;Temp;Humidity;BMP_temperature;BMP_pressure;BME280_temperature;BME280_humidity;BME280_pressure;Samples;Min_cycle;Max_cycle;Signal;HPM_P1;HPM_P2
2022/11/24 00:00:24;;;;;;;12.52;2.90;;;6.50;99.90;;;;;;5052768;28;20051;-41
2022/11/24 00:02:50;;;;;;;7.63;2.53;;;6.50;99.90;;;;;;5040921;28;20044;-42
2022/11/24 00:05:16;;;;;;;12.70;3.20;;;6.50;99.90;;;;;;5042392;28;20093;-42
2022/11/24 00:07:42;;;;;;;11.20;3.03;;;6.50;99.90;;;;;;5055379;28;20075;-41
2022/11/24 00:10:08;;;;;;;10.10;2.58;;;6.50;99.90;;;;;;5068264;28;20331;-43
2022/11/24 00:12:33;;;;;;;11.13;2.65;;;6.50;99.90;;;;;;5059970;28;20284;-44
2022/11/24 00:14:59;;;;;;;19.52;3.20;;;6.50;99.90;;;;;;5063633;28;20064;-44
2022/11/24 00:17:25;;;;;;;13.85;2.58;;;6.50;99.90;;;;;;5048154;28;20051;-40
2022/11/24 00:19:50;;;;;;;11.65;2.67;;;6.50;99.90;;;;;;5064452;28;20219;-44
2022/11/24 00:22:16;;;;;;;20.05;2.88;;;6.50;99.90;;;;;;5059674;28;20504;-44
2022/11/24 00:24:42;;;;;;;13.63;2.28;;;6.60;99.90;;;;;;5063351;28;20037;-43
2022/11/24 00:27:07;;;;;;;10.52;2.42;;;6.60;99.90;;;;;;5046905;28;20102;-41
2022/11/24 00:29:33;;;;;;;10.20;2.95;;;6.60;99.90;;;;;;5062104;28;20508;-42
2022/11/24 00:32:01;;;;;;;17.63;2.40;;;6.70;99.90;;;;;;5058934;28;20069;-47
2022/11/24 00:34:27;;;;;;;14.70;2.47;;;6.80;99.90;;;;;;5059926;28;20041;-42
2022/11/24 00:36:52;;;;;;;12.05;2.75;;;6.80;99.90;;;;;;5054034;28;20051;-41
2022/11/24 00:39:18;;;;;;;10.77;2.40;;;6.90;99.90;;;;;;5056224;28;20040;-40
2022/11/24 00:41:44;;;;;;;13.60;2.83;;;6.90;99.90;;;;;;5058943;28;20074;-42
2022/11/24 00:44:10;;;;;;;11.32;2.08;;;7.00;99.90;;;;;;5060980;28;20287;-43
2022/11/24 00:46:35;;;;;;;16.58;2.03;;;7.00;99.90;;;;;;5062710;28;20043;-44
2022/11/24 00:49:01;;;;;;;15.70;2.53;;;7.10;99.90;;;;;;5061008;28;20032;-42
2022/11/24 00:51:29;;;;;;;9.70;1.77;;;7.10;99.90;;;;;;5058002;28;20044;-41
2022/11/24 00:53:56;;;;;;;12.73;2.35;;;7.10;99.90;;;;;;5064921;28;20040;-41
2022/11/24 00:56:22;;;;;;;11.45;2.35;;;7.10;99.90;;;;;;5060841;28;20540;-41
2022/11/24 00:58:48;;;;;;;12.38;2.20;;;7.10;99.90;;;;;;5062354;28;20514;-41
2022/11/24 01:01:17;;;;;;;12.30;1.75;;;7.20;99.90;;;;;;5059437;28;20029;-46
2022/11/24 01:03:43;;;;;;;13.32;2.22;;;7.20;99.90;;;;;;5057991;28;20048;-41
2022/11/24 01:06:13;;;;;;;22.42;4.20;;;7.20;99.90;;;;;;5059383;28;20611;-41
2022/11/24 01:08:40;;;;;;;12.00;2.67;;;7.30;99.90;;;;;;5060322;28;20387;-42
2022/11/24 01:11:14;;;;;;;14.98;2.55;;;7.30;99.90;;;;;;5060358;28;20048;-41
2022/11/24 01:13:42;;;;;;;16.23;1.95;;;7.30;99.90;;;;;;5056661;28;20048;-43
2022/11/24 01:16:29;;;;;;;19.50;2.25;;;7.30;99.90;;;;;;5062265;28;20068;-42
2022/11/24 01:18:55;;;;;;;11.93;1.73;;;7.30;99.90;;;;;;5062661;28;20528;-43
2022/11/24 01:21:22;;;;;;;11.75;1.80;;;7.30;99.90;;;;;;5061049;28;20028;-42
2022/11/24 01:23:48;;;;;;;13.55;1.80;;;7.30;99.90;;;;;;5064395;28;20037;-45
2022/11/24 01:26:16;;;;;;;11.90;2.15;;;7.30;99.90;;;;;;5059933;28;20071;-40
2022/11/24 01:28:42;;;;;;;17.65;1.75;;;7.40;99.90;;;;;;5058253;28;20036;-41
2022/11/24 01:31:08;;;;;;;12.85;1.73;;;7.40;99.90;;;;;;5071999;28;20410;-41
2022/11/24 01:33:35;;;;;;;20.45;2.53;;;7.40;99.90;;;;;;5055305;28;20518;-45
2022/11/24 01:36:02;;;;;;;14.75;2.72;;;7.40;99.90;;;;;;5058860;28;20049;-44
2022/11/24 01:38:28;;;;;;;14.77;2.20;;;7.40;99.90;;;;;;5063842;28;20536;-41
2022/11/24 01:41:10;;;;;;;10.23;2.10;;;7.40;99.90;;;;;;5067604;28;20041;-41
2022/11/24 01:43:36;;;;;;;13.55;2.42;;;7.40;99.90;;;;;;5071866;28;20514;-43
2022/11/24 01:46:20;;;;;;;12.27;3.03;;;7.40;99.90;;;;;;5055967;28;20557;-43
2022/11/24 01:48:56;;;;;;;7.45;2.20;;;7.40;99.90;;;;;;5059941;28;20080;-42
2022/11/24 01:51:25;;;;;;;11.80;1.90;;;7.50;99.90;;;;;;5060055;28;20547;-42
2022/11/24 01:54:16;;;;;;;9.13;1.33;;;7.50;99.90;;;;;;5069822;28;20044;-42
2022/11/24 01:56:46;;;;;;;11.30;1.77;;;7.60;99.90;;;;;;5050425;28;20056;-46
2022/11/24 01:59:14;;;;;;;8.63;1.40;;;7.60;99.90;;;;;;5065895;28;20040;-43
2022/11/24 02:01:40;;;;;;;7.55;1.73;;;7.60;99.90;;;;;;5068713;28;20036;-42
2022/11/24 02:04:11;;;;;;;13.15;2.90;;;7.60;99.90;;;;;;5069859;28;20033;-40
2022/11/24 02:06:39;;;;;;;9.93;1.85;;;7.60;99.90;;;;;;5061819;28;20036;-41
2022/11/24 02:09:28;;;;;;;14.18;1.88;;;7.50;99.90;;;;;;5054248;28;20044;-42
2022/11/24 02:11:55;;;;;;;8.57;1.50;;;7.50;99.90;;;;;;5054969;28;20162;-41
2022/11/24 02:14:23;;;;;;;10.05;1.85;;;7.50;99.90;;;;;;5059443;28;20044;-40
2022/11/24 02:16:51;;;;;;;10.13;1.20;;;7.50;99.90;;;;;;5058461;28;20041;-41
2022/11/24 02:19:17;;;;;;;10.77;1.58;;;7.50;99.90;;;;;;5069415;28;20482;-43
2022/11/24 02:21:43;;;;;;;7.57;1.20;;;7.50;99.90;;;;;;5056422;28;20040;-43
2022/11/24 02:24:22;;;;;;;11.88;1.83;;;7.50;99.90;;;;;;5063452;28;20064;-43
2022/11/24 02:26:50;;;;;;;12.43;1.88;;;7.50;99.90;;;;;;5064731;28;20036;-43
2022/11/24 02:29:18;;;;;;;11.25;2.13;;;7.50;99.90;;;;;;5068352;28;20158;-43
2022/11/24 02:31:48;;;;;;;14.55;2.58;;;7.50;99.90;;;;;;5052505;28;20037;-42
2022/11/24 02:34:14;;;;;;;13.30;2.28;;;7.60;99.90;;;;;;5064722;28;20043;-45
2022/11/24 02:36:39;;;;;;;11.23;1.77;;;7.60;99.90;;;;;;5061390;28;20037;-41
2022/11/24 02:39:13;;;;;;;10.52;1.50;;;7.60;99.90;;;;;;5065259;28;20041;-41
2022/11/24 02:41:45;;;;;;;8.20;1.45;;;7.60;99.90;;;;;;5065492;28;20505;-41
2022/11/24 02:44:14;;;;;;;14.88;1.63;;;7.60;99.90;;;;;;5063505;28;20632;-44
2022/11/24 02:46:40;;;;;;;9.88;2.22;;;7.60;99.90;;;;;;5063476;28;20055;-41
2022/11/24 02:49:05;;;;;;;9.95;1.38;;;7.60;99.90;;;;;;5062212;28;20041;-40
2022/11/24 02:51:33;;;;;;;13.07;2.65;;;7.70;99.90;;;;;;5057874;28;20044;-41
2022/11/24 02:53:59;;;;;;;13.75;2.05;;;7.70;99.90;;;;;;5061939;28;20064;-44
2022/11/24 02:56:25;;;;;;;14.40;1.70;;;7.70;99.90;;;;;;5060693;28;20105;-42
2022/11/24 02:58:51;;;;;;;11.98;1.60;;;7.60;99.90;;;;;;5069651;28;20105;-43
2022/11/24 03:01:17;;;;;;;11.35;1.80;;;7.60;99.90;;;;;;5062536;28;20482;-41
2022/11/24 03:03:43;;;;;;;9.93;1.33;;;7.60;99.90;;;;;;5067392;28;20036;-44
2022/11/24 03:06:09;;;;;;;8.40;1.40;;;7.60;99.90;;;;;;5061859;28;20056;-41
2022/11/24 03:08:34;;;;;;;6.40;1.48;;;7.50;99.90;;;;;;5060344;28;20048;-43
2022/11/24 03:11:01;;;;;;;11.07;1.88;;;7.50;99.90;;;;;;5060756;28;20043;-41
2022/11/24 03:13:27;;;;;;;11.73;2.47;;;7.50;99.90;;;;;;5065200;28;20390;-43
2022/11/24 03:15:53;;;;;;;12.20;1.25;;;7.50;99.90;;;;;;5065555;28;20029;-43
2022/11/24 03:18:19;;;;;;;12.68;1.30;;;7.50;99.90;;;;;;5061620;28;20158;-42
2022/11/24 03:20:44;;;;;;;8.13;1.35;;;7.50;99.90;;;;;;5058891;28;20277;-43
2022/11/24 03:23:10;;;;;;;9.60;0.98;;;7.40;99.90;;;;;;5064131;28;20043;-42
2022/11/24 03:25:36;;;;;;;9.43;1.42;;;7.50;99.90;;;;;;5051852;28;20036;-40
2022/11/24 03:28:02;;;;;;;8.25;1.20;;;7.40;99.90;;;;;;5067996;28;20486;-41
2022/11/24 03:30:28;;;;;;;11.55;1.95;;;7.40;99.90;;;;;;5068310;28;20033;-41
2022/11/24 03:32:53;;;;;;;12.38;1.90;;;7.40;99.90;;;;;;5046401;28;20068;-44
2022/11/24 03:35:20;;;;;;;11.13;1.40;;;7.40;99.90;;;;;;5066636;28;20033;-43
2022/11/24 03:37:46;;;;;;;10.50;1.67;;;7.40;99.90;;;;;;5064257;28;20036;-44
2022/11/24 03:40:12;;;;;;;6.88;1.30;;;7.40;99.90;;;;;;5064254;28;20029;-42
2022/11/24 03:42:39;;;;;;;9.73;1.92;;;7.40;99.90;;;;;;5062242;28;20043;-42
2022/11/24 03:45:05;;;;;;;6.60;0.73;;;7.30;99.90;;;;;;5065115;28;20048;-43
2022/11/24 03:47:31;;;;;;;11.35;1.20;;;7.30;99.90;;;;;;5060973;28;20397;-44
2022/11/24 03:49:56;;;;;;;9.43;1.40;;;7.30;99.90;;;;;;5065539;28;20040;-42
2022/11/24 03:52:25;;;;;;;13.77;1.27;;;7.30;99.90;;;;;;5062639;28;20086;-44
2022/11/24 03:54:51;;;;;;;15.20;1.63;;;7.30;99.90;;;;;;5060571;28;20123;-43
2022/11/24 03:57:17;;;;;;;10.70;1.73;;;7.20;99.90;;;;;;5060943;28;20045;-41
2022/11/24 03:59:43;;;;;;;9.50;1.08;;;7.20;99.90;;;;;;5061340;28;20040;-47
2022/11/24 04:02:08;;;;;;;11.15;1.30;;;7.20;99.90;;;;;;5055448;28;20051;-44
2022/11/24 04:04:34;;;;;;;5.80;1.35;;;7.20;99.90;;;;;;5064676;28;20091;-43
2022/11/24 04:07:00;;;;;;;7.05;1.10;;;7.10;99.90;;;;;;5060283;28;20037;-42
2022/11/24 04:09:25;;;;;;;7.07;1.30;;;7.10;99.90;;;;;;5062129;28;20047;-41
2022/11/24 04:14:35;;;;;;;8.95;1.50;;;7.10;99.90;;;;;;5061791;28;20087;-43
2022/11/24 04:17:03;;;;;;;12.77;1.48;;;7.10;99.90;;;;;;5063230;28;20494;-43
2022/11/24 04:19:28;;;;;;;10.77;1.83;;;7.10;99.90;;;;;;5067048;28;20497;-43
2022/11/24 04:21:55;;;;;;;7.68;1.55;;;7.10;99.90;;;;;;5062142;28;20110;-42
2022/11/24 04:24:21;;;;;;;7.07;0.98;;;7.10;99.90;;;;;;5065795;28;20032;-42
2022/11/24 04:26:46;;;;;;;8.77;1.40;;;7.10;99.90;;;;;;5063944;28;20036;-41
2022/11/24 04:29:12;;;;;;;7.25;1.60;;;7.10;99.90;;;;;;5059379;28;20097;-43
2022/11/24 04:31:38;;;;;;;14.07;2.25;;;7.10;99.90;;;;;;5060321;28;20539;-44
2022/11/24 04:34:03;;;;;;;8.48;1.10;;;7.10;99.90;;;;;;5065489;28;20533;-43
2022/11/24 04:36:29;;;;;;;9.35;1.48;;;7.10;99.90;;;;;;5058431;28;20501;-46
2022/11/24 04:38:55;;;;;;;10.82;1.40;;;7.10;99.90;;;;;;5063888;28;20068;-41
2022/11/24 04:41:20;;;;;;;12.18;2.00;;;7.00;99.90;;;;;;5062848;28;20039;-61
2022/11/24 04:43:49;;;;;;;11.00;1.48;;;7.00;99.90;;;;;;5065662;28;20118;-43
2022/11/24 04:46:14;;;;;;;11.38;2.15;;;6.90;99.90;;;;;;5064442;28;20044;-42
2022/11/24 04:48:40;;;;;;;10.18;1.23;;;6.90;99.90;;;;;;5063255;28;20086;-43
2022/11/24 04:51:06;;;;;;;8.25;1.50;;;6.90;99.90;;;;;;5064548;28;20036;-44
2022/11/24 04:53:32;;;;;;;6.68;1.17;;;6.90;99.90;;;;;;5067289;28;21177;-42
2022/11/24 04:55:57;;;;;;;7.55;0.93;;;6.90;99.90;;;;;;5062095;28;20123;-42
2022/11/24 04:58:23;;;;;;;8.18;1.02;;;6.90;99.90;;;;;;5055651;28;20044;-43
2022/11/24 05:00:49;;;;;;;11.93;1.88;;;6.80;99.90;;;;;;5062762;28;20504;-43
2022/11/24 05:03:14;;;;;;;8.50;1.23;;;6.90;99.90;;;;;;5061877;28;20080;-40
2022/11/24 05:05:40;;;;;;;11.30;1.70;;;6.90;99.90;;;;;;5065649;28;20535;-42
2022/11/24 05:08:05;;;;;;;5.40;1.13;;;6.80;99.90;;;;;;5062319;28;20489;-42
2022/11/24 05:10:34;;;;;;;8.98;1.52;;;6.80;99.90;;;;;;5064626;28;20076;-42
2022/11/24 05:13:01;;;;;;;14.10;1.35;;;6.80;99.90;;;;;;5062283;28;20036;-45
2022/11/24 05:15:26;;;;;;;6.35;1.02;;;6.80;99.90;;;;;;5062193;28;20612;-41
2022/11/24 05:17:53;;;;;;;9.73;1.10;;;6.80;99.90;;;;;;5067821;28;20032;-42
2022/11/24 05:20:19;;;;;;;7.72;1.30;;;6.70;99.90;;;;;;5062408;28;20032;-47
2022/11/24 05:22:44;;;;;;;9.18;1.15;;;6.70;99.90;;;;;;5063994;28;20409;-42
2022/11/24 05:25:10;;;;;;;9.88;1.73;;;6.70;99.90;;;;;;5064592;28;20090;-41
2022/11/24 05:27:36;;;;;;;6.38;1.40;;;6.70;99.90;;;;;;5065311;28;20470;-41
2022/11/24 05:30:03;;;;;;;7.88;1.52;;;6.70;99.90;;;;;;5065027;28;20119;-40
2022/11/24 05:32:28;;;;;;;10.32;1.05;;;6.70;99.90;;;;;;5066594;28;20044;-43
2022/11/24 05:34:55;;;;;;;7.95;1.00;;;6.70;99.90;;;;;;5066131;28;20033;-42
2022/11/24 05:37:21;;;;;;;9.48;1.30;;;6.70;99.90;;;;;;5062912;28;20098;-43
2022/11/24 05:39:46;;;;;;;7.88;0.90;;;6.70;99.90;;;;;;5062379;28;20449;-41
2022/11/24 05:44:56;;;;;;;9.40;1.63;;;6.60;99.90;;;;;;5061367;28;20036;-46
2022/11/24 05:47:22;;;;;;;9.00;1.05;;;6.60;99.90;;;;;;5066884;28;20101;-43
2022/11/24 05:49:48;;;;;;;8.57;1.50;;;6.60;99.90;;;;;;5066762;28;20223;-40
2022/11/24 05:52:15;;;;;;;12.18;2.70;;;6.60;99.90;;;;;;5063715;28;20426;-42
2022/11/24 05:54:40;;;;;;;5.43;1.10;;;6.60;99.90;;;;;;5068979;28;20044;-43
2022/11/24 05:57:06;;;;;;;10.55;1.08;;;6.60;99.90;;;;;;5068798;28;20043;-42
2022/11/24 05:59:32;;;;;;;7.68;1.15;;;6.60;99.90;;;;;;5061591;28;20048;-42
2022/11/24 06:01:58;;;;;;;12.20;1.92;;;6.60;99.90;;;;;;5063879;28;20490;-43
2022/11/24 06:04:24;;;;;;;7.30;1.27;;;6.60;99.90;;;;;;5061841;28;20032;-43
2022/11/24 06:06:50;;;;;;;11.60;2.47;;;6.70;99.90;;;;;;5061431;28;20086;-41
2022/11/24 06:09:16;;;;;;;8.38;1.50;;;6.70;99.90;;;;;;5065342;28;20043;-44
2022/11/24 06:11:42;;;;;;;8.27;1.15;;;6.70;99.90;;;;;;5064765;28;20033;-44
2022/11/24 06:14:09;;;;;;;10.88;1.35;;;6.70;99.90;;;;;;5055727;28;20120;-42
2022/11/24 06:16:35;;;;;;;11.32;1.75;;;6.80;99.90;;;;;;5057565;28;20040;-42
2022/11/24 06:19:00;;;;;;;9.25;1.25;;;6.80;99.90;;;;;;5062247;28;20044;-47
2022/11/24 06:21:27;;;;;;;11.23;1.23;;;6.90;99.90;;;;;;5061538;28;20040;-43
2022/11/24 06:23:53;;;;;;;9.02;1.20;;;6.90;99.90;;;;;;5063349;28;20059;-42
2022/11/24 06:26:18;;;;;;;10.75;1.42;;;6.90;99.90;;;;;;5062217;28;20040;-40
2022/11/24 06:28:44;;;;;;;10.10;1.75;;;7.00;99.90;;;;;;5061743;28;20067;-42
2022/11/24 06:31:10;;;;;;;10.30;1.50;;;7.00;99.90;;;;;;5065717;28;20043;-40
2022/11/24 06:33:37;;;;;;;6.55;1.10;;;7.00;99.90;;;;;;5053745;28;20646;-44
2022/11/24 06:36:08;;;;;;;12.05;1.48;;;7.00;99.90;;;;;;5058812;28;20219;-41
2022/11/24 06:38:35;;;;;;;;;;;7.00;99.90;;;;;;5058573;28;20143;-43
2022/11/24 06:41:07;;;;;;;10.02;1.60;;;7.00;99.90;;;;;;5059247;28;20003;-41
2022/11/24 06:43:34;;;;;;;8.48;1.40;;;7.00;99.90;;;;;;5061017;28;20041;-43
2022/11/24 06:46:00;;;;;;;10.15;2.40;;;7.10;99.90;;;;;;5063518;28;20506;-44
2022/11/24 06:48:26;;;;;;;19.73;2.00;;;7.00;99.90;;;;;;5063968;28;20123;-43
2022/11/24 06:50:52;;;;;;;13.77;2.40;;;7.10;99.90;;;;;;5058618;28;20040;-43
2022/11/24 06:53:18;;;;;;;11.07;1.83;;;7.10;99.90;;;;;;5063334;28;20508;-41
2022/11/24 06:55:45;;;;;;;8.23;1.75;;;7.20;99.90;;;;;;5053595;28;20037;-43
2022/11/24 06:58:11;;;;;;;9.73;2.40;;;7.20;99.90;;;;;;5058984;28;20037;-41
2022/11/24 07:00:37;;;;;;;9.55;1.85;;;7.20;99.90;;;;;;5061815;28;20051;-44
2022/11/24 07:03:03;;;;;;;7.38;1.75;;;7.20;99.90;;;;;;5063903;28;20052;-45
2022/11/24 07:05:29;;;;;;;8.18;1.95;;;7.20;99.90;;;;;;5060043;28;20385;-40
2022/11/24 07:07:54;;;;;;;9.82;2.20;;;7.30;99.90;;;;;;5059878;28;20044;-45
2022/11/24 07:10:20;;;;;;;11.38;2.50;;;7.30;99.90;;;;;;5055265;28;20047;-43
2022/11/24 07:12:46;;;;;;;10.15;2.47;;;7.30;99.90;;;;;;5055772;28;20375;-42
2022/11/24 07:15:13;;;;;;;13.68;2.97;;;7.30;99.90;;;;;;5061629;28;20162;-42
2022/11/24 07:17:39;;;;;;;6.53;1.85;;;7.30;99.90;;;;;;5064584;28;20120;-41
2022/11/24 07:20:07;;;;;;;10.38;2.50;;;7.30;99.90;;;;;;5062604;28;20159;-39
2022/11/24 07:22:33;;;;;;;12.52;3.15;;;7.30;99.90;;;;;;5061106;28;20525;-40
2022/11/24 07:24:59;;;;;;;10.43;2.50;;;7.30;99.90;;;;;;5065467;28;20056;-40
2022/11/24 07:27:27;;;;;;;9.82;2.75;;;7.30;99.90;;;;;;5064922;28;20032;-43
2022/11/24 07:29:52;;;;;;;14.77;3.03;;;7.30;99.90;;;;;;5060994;28;20084;-40
2022/11/24 07:32:18;;;;;;;8.68;2.00;;;7.30;99.90;;;;;;5061327;28;20080;-41
2022/11/24 07:34:44;;;;;;;8.85;3.05;;;7.30;99.90;;;;;;5067912;28;20047;-45
2022/11/24 07:37:09;;;;;;;9.02;2.25;;;7.20;99.90;;;;;;5059576;28;20048;-43
2022/11/24 07:39:35;;;;;;;5.90;2.15;;;7.20;99.90;;;;;;5057357;28;20048;-42
2022/11/24 07:42:03;;;;;;;7.85;1.92;;;7.20;99.90;;;;;;5063129;28;20070;-47
2022/11/24 07:44:29;;;;;;;8.63;2.05;;;7.20;99.90;;;;;;5060219;28;20044;-43
2022/11/24 07:46:55;;;;;;;7.47;1.67;;;7.20;99.90;;;;;;5057686;28;20066;-41
2022/11/24 07:49:21;;;;;;;11.40;1.90;;;7.30;99.90;;;;;;5063789;28;20085;-43
2022/11/24 07:51:47;;;;;;;10.70;2.78;;;7.30;99.90;;;;;;5062116;28;20138;-42
2022/11/24 07:54:13;;;;;;;5.88;1.70;;;7.20;99.90;;;;;;5059300;28;20091;-40
2022/11/24 07:56:38;;;;;;;5.80;1.50;;;7.20;99.90;;;;;;5053439;28;20032;-44
2022/11/24 07:59:04;;;;;;;3.90;1.17;;;7.20;99.90;;;;;;5054524;28;20498;-39
2022/11/24 08:01:30;;;;;;;8.32;1.65;;;7.10;99.90;;;;;;5053417;28;20047;-50
2022/11/24 08:03:56;;;;;;;6.50;2.33;;;7.10;99.90;;;;;;5057476;28;20385;-43
2022/11/24 08:06:22;;;;;;;6.30;1.23;;;7.10;99.90;;;;;;5073648;28;20501;-41
2022/11/24 08:08:47;;;;;;;6.55;1.83;;;7.10;99.90;;;;;;5056877;28;20534;-42
2022/11/24 08:11:16;;;;;;;6.78;1.60;;;7.00;99.90;;;;;;5056562;28;20032;-41
2022/11/24 08:13:42;;;;;;;6.07;1.33;;;7.00;99.90;;;;;;5056821;28;20135;-40
2022/11/24 08:16:09;;;;;;;5.13;1.10;;;7.00;99.90;;;;;;5062761;28;20497;-41
2022/11/24 08:18:36;;;;;;;5.00;1.00;;;7.00;99.90;;;;;;5071549;28;20541;-41
2022/11/24 08:21:03;;;;;;;4.88;0.88;;;6.90;99.90;;;;;;5053289;28;20078;-40
2022/11/24 08:23:29;;;;;;;4.53;0.70;;;6.90;99.90;;;;;;5052813;28;20064;-42
2022/11/24 08:25:56;;;;;;;5.20;0.60;;;6.90;99.90;;;;;;5059302;28;20036;-48
2022/11/24 08:28:22;;;;;;;3.30;0.60;;;7.00;99.90;;;;;;5059970;28;20402;-42
2022/11/24 08:30:48;;;;;;;3.17;0.47;;;7.00;99.90;;;;;;5057453;28;20036;-41
2022/11/24 08:33:14;;;;;;;5.63;0.98;;;7.10;99.90;;;;;;5064259;28;20502;-44
2022/11/24 08:35:39;;;;;;;3.05;0.43;;;7.20;99.90;;;;;;5051895;28;20048;-46
2022/11/24 08:38:05;;;;;;;1.75;0.60;;;7.30;99.90;;;;;;5059403;28;20319;-43
2022/11/24 08:40:31;;;;;;;2.55;0.47;;;7.50;99.90;;;;;;5059539;28;20063;-51
2022/11/24 08:42:59;;;;;;;2.53;0.55;;;7.60;99.90;;;;;;5067745;28;20040;-40
2022/11/24 08:45:25;;;;;;;2.78;0.50;;;7.70;99.90;;;;;;5055702;28;20041;-44
2022/11/24 08:47:55;;;;;;;2.20;0.40;;;7.70;99.90;;;;;;5061762;28;20089;-42
2022/11/24 08:50:23;;;;;;;1.60;0.50;;;7.80;99.90;;;;;;5057092;28;20053;-42
2022/11/24 08:52:50;;;;;;;3.85;1.05;;;7.80;99.90;;;;;;5062117;28;20545;-40
2022/11/24 08:55:16;;;;;;;6.53;0.88;;;7.80;99.90;;;;;;5057045;28;20117;-39
2022/11/24 08:57:42;;;;;;;3.90;0.70;;;7.80;99.90;;;;;;5051313;28;20470;-41
2022/11/24 09:00:08;;;;;;;2.25;0.75;;;7.70;99.90;;;;;;5055122;28;20561;-41
2022/11/24 09:02:34;;;;;;;1.33;0.50;;;7.70;99.90;;;;;;5059391;28;20044;-40
2022/11/24 09:05:00;;;;;;;2.50;0.70;;;7.70;99.90;;;;;;5054840;28;20048;-41
2022/11/24 09:07:26;;;;;;;5.05;0.90;;;7.70;99.90;;;;;;5052797;28;20576;-45
2022/11/24 09:09:51;;;;;;;2.50;0.88;;;7.80;99.90;;;;;;5059773;28;20039;-41
2022/11/24 09:12:17;;;;;;;4.53;1.20;;;7.80;99.90;;;;;;5056978;28;20512;-42
2022/11/24 09:14:42;;;;;;;4.38;1.40;;;7.90;99.90;;;;;;5061759;28;21952;-42
2022/11/24 09:17:08;;;;;;;3.92;1.40;;;8.00;99.90;;;;;;5055402;28;20060;-40
2022/11/24 09:19:34;;;;;;;4.68;1.55;;;8.00;99.90;;;;;;5056367;28;20509;-42
2022/11/24 09:21:59;;;;;;;4.65;1.80;;;8.00;99.90;;;;;;5060250;28;20124;-41
2022/11/24 09:24:25;;;;;;;5.93;1.73;;;8.10;99.90;;;;;;5055952;28;20048;-43
2022/11/24 09:26:52;;;;;;;6.63;1.88;;;8.10;99.90;;;;;;5056440;28;20064;-42
2022/11/24 09:29:18;;;;;;;7.75;2.25;;;8.20;99.90;;;;;;5051925;28;20033;-38
2022/11/24 09:31:43;;;;;;;5.72;1.80;;;8.20;99.90;;;;;;5056795;28;20052;-38
2022/11/24 09:34:13;;;;;;;5.50;1.83;;;8.20;99.90;;;;;;5057413;28;20079;-40
2022/11/24 09:36:39;;;;;;;6.20;2.28;;;8.20;99.90;;;;;;5055359;28;20510;-39
2022/11/24 09:39:05;;;;;;;7.40;3.47;;;8.20;99.90;;;;;;5056083;28;20111;-40
2022/11/24 09:41:58;;;;;;;7.55;2.33;;;8.30;99.90;;;;;;5061388;28;20091;-40
2022/11/24 09:44:24;;;;;;;5.90;2.25;;;8.30;99.90;;;;;;5056778;28;20557;-39
2022/11/24 09:47:04;;;;;;;6.60;2.10;;;8.40;99.90;;;;;;5058102;28;20205;-39
2022/11/24 09:49:41;;;;;;;5.22;2.17;;;8.40;99.90;;;;;;5053960;28;20079;-39
2022/11/24 09:52:15;;;;;;;6.70;2.65;;;8.40;99.90;;;;;;5056982;28;20406;-42
2022/11/24 09:54:53;;;;;;;7.43;2.78;;;8.50;99.90;;;;;;5060957;28;20045;-39
2022/11/24 09:57:24;;;;;;;5.45;2.30;;;8.50;99.90;;;;;;5063399;28;20082;-39
2022/11/24 09:59:49;;;;;;;5.53;2.47;;;8.50;99.90;;;;;;5057529;28;20037;-41
2022/11/24 10:02:15;;;;;;;5.30;2.70;;;8.60;99.90;;;;;;5058085;28;20040;-40
2022/11/24 10:04:43;;;;;;;6.05;2.83;;;8.60;99.90;;;;;;5067185;28;20041;-40
2022/11/24 10:07:26;;;;;;;5.85;2.25;;;8.70;99.90;;;;;;5055362;28;20101;-39
2022/11/24 10:10:02;;;;;;;6.30;2.50;;;8.70;99.90;;;;;;5066344;28;20060;-39
2022/11/24 10:12:46;;;;;;;6.82;2.72;;;8.80;99.90;;;;;;5066874;28;20039;-39
2022/11/24 10:15:20;;;;;;;8.38;3.05;;;8.80;99.90;;;;;;5061783;28;20041;-39
2022/11/24 10:18:03;;;;;;;9.07;2.80;;;8.90;99.90;;;;;;5056944;28;20052;-39
2022/11/24 10:20:48;;;;;;;8.90;2.85;;;9.00;99.90;;;;;;5060422;28;20045;-39
2022/11/24 10:23:39;;;;;;;9.65;3.17;;;8.90;99.90;;;;;;5058316;28;20079;-38
2022/11/24 10:26:41;;;;;;;7.72;2.83;;;9.00;99.90;;;;;;5058449;28;20060;-39
2022/11/24 10:29:33;;;;;;;12.23;2.40;;;9.10;99.90;;;;;;5059451;28;20055;-40
2022/11/24 10:32:02;;;;;;;7.32;2.90;;;9.20;99.90;;;;;;5061483;28;20028;-42
2022/11/24 10:34:33;;;;;;;9.60;3.00;;;9.20;99.90;;;;;;5061674;28;20567;-43
2022/11/24 10:37:29;;;;;;;10.40;2.88;;;9.30;99.90;;;;;;5059719;28;20121;-42
2022/11/24 10:40:32;;;;;;;8.45;2.53;;;9.40;99.90;;;;;;5064467;28;20246;-45
2022/11/24 10:42:57;;;;;;;;;;;9.50;99.90;;;;;;5065234;28;20072;-44
2022/11/24 10:45:27;;;;;;;17.05;3.78;;;9.80;99.90;;;;;;5059189;28;19979;-43
2022/11/24 10:47:53;;;;;;;6.90;2.50;;;10.10;99.90;;;;;;5057057;28;20097;-41
2022/11/24 10:50:35;;;;;;;11.60;2.83;;;10.50;99.90;;;;;;5064917;28;20518;-44
2022/11/24 10:53:29;;;;;;;6.43;2.40;;;11.00;99.90;;;;;;5060860;28;20045;-47
2022/11/24 10:55:57;;;;;;;6.60;2.33;;;11.10;99.90;;;;;;5055178;28;20046;-45
2022/11/24 10:58:34;;;;;;;8.40;2.47;;;11.30;99.90;;;;;;5057627;28;20041;-48
2022/11/24 11:01:12;;;;;;;10.07;1.95;;;11.40;99.90;;;;;;5053287;28;20086;-46
2022/11/24 11:03:51;;;;;;;6.78;2.10;;;11.60;99.90;;;;;;5054923;28;20033;-45
2022/11/24 11:06:24;;;;;;;13.20;3.78;;;11.80;99.90;;;;;;5058357;28;20040;-47
2022/11/24 11:09:09;;;;;;;;;;;11.90;99.90;;;;;;5060042;28;20041;-41
2022/11/24 11:11:38;;;;;;;7.53;2.17;;;12.00;99.90;;;;;;5056058;28;19926;-45
2022/11/24 11:14:11;;;;;;;6.80;1.90;;;12.30;99.90;;;;;;5058019;28;20094;-44
2022/11/24 11:16:40;;;;;;;6.18;1.88;;;12.40;99.90;;;;;;5058921;28;20075;-42
2022/11/24 11:19:34;;;;;;;7.18;1.85;;;12.60;99.90;;;;;;5056825;28;20068;-46
2022/11/24 11:22:10;;;;;;;10.05;2.20;;;12.70;99.90;;;;;;5060856;28;20156;-43
2022/11/24 11:24:40;;;;;;;7.38;1.73;;;12.80;99.90;;;;;;5058960;28;20049;-44
2022/11/24 11:27:23;;;;;;;5.70;1.60;;;12.90;99.90;;;;;;5059098;28;20032;-44
2022/11/24 11:29:49;;;;;;;4.95;1.55;;;13.00;99.90;;;;;;5062454;28;20037;-46
2022/11/24 11:32:19;;;;;;;8.02;2.05;;;13.10;99.90;;;;;;5056571;28;20052;-46
2022/11/24 11:34:46;;;;;;;5.38;1.45;;;13.40;99.90;;;;;;5061473;28;20495;-41
2022/11/24 11:37:14;;;;;;;6.43;2.00;;;13.70;99.90;;;;;;5063318;28;20048;-45
2022/11/24 11:39:46;;;;;;;5.28;1.17;;;13.80;99.90;;;;;;5064146;28;20044;-44
2022/11/24 11:42:23;;;;;;;8.38;1.77;;;13.80;99.90;;;;;;5057593;28;20044;-40
2022/11/24 11:44:56;;;;;;;9.48;2.42;;;13.70;99.90;;;;;;5064089;28;20048;-41
2022/11/24 11:47:26;;;;;;;;;;;13.90;99.90;;;;;;5059053;28;20036;-43
2022/11/24 11:49:53;;;;;;;8.35;1.45;;;14.00;99.50;;;;;;5054875;28;19924;-40
2022/11/24 11:52:59;;;;;;;5.35;1.40;;;14.20;99.90;;;;;;5058772;28;20288;-45
2022/11/24 11:55:28;;;;;;;6.22;1.58;;;14.50;99.60;;;;;;5045024;28;20129;-41
2022/11/24 11:58:03;;;;;;;7.55;1.50;;;14.60;99.90;;;;;;5060532;28;20041;-42
2022/11/24 12:00:33;;;;;;;7.90;1.98;;;14.60;99.40;;;;;;5058924;28;20449;-42
2022/11/24 12:03:37;;;;;;;7.60;1.40;;;14.70;98.80;;;;;;5058697;28;20048;-42
2022/11/24 12:06:45;;;;;;;6.72;1.38;;;14.80;97.90;;;;;;5055705;28;20040;-45
2022/11/24 12:09:26;;;;;;;9.10;1.20;;;15.10;98.10;;;;;;5065123;28;20553;-43
2022/11/24 12:12:01;;;;;;;8.30;1.75;;;15.50;97.60;;;;;;5065361;28;20044;-42
2022/11/24 12:14:49;;;;;;;12.55;1.60;;;15.60;96.50;;;;;;5053735;28;20113;-42
2022/11/24 12:17:32;;;;;;;5.25;1.00;;;15.60;96.30;;;;;;5060333;28;20486;-41
2022/11/24 12:20:23;;;;;;;6.60;1.38;;;15.60;95.10;;;;;;5061018;28;20033;-45
2022/11/24 12:23:21;;;;;;;10.90;2.15;;;15.60;96.00;;;;;;5056178;28;20044;-42
2022/11/24 12:26:00;;;;;;;7.68;1.10;;;15.80;94.10;;;;;;5063590;28;20048;-42
2022/11/24 12:28:43;;;;;;;4.55;1.00;;;15.90;95.00;;;;;;5062486;28;20062;-42
2022/11/24 12:31:27;;;;;;;5.38;0.85;;;16.00;95.20;;;;;;5060639;28;20029;-42
2022/11/24 12:34:20;;;;;;;7.93;1.08;;;15.90;91.60;;;;;;5061471;28;20056;-42
2022/11/24 12:36:58;;;;;;;7.40;1.40;;;15.70;91.90;;;;;;5056690;28;20045;-44
2022/11/24 12:39:41;;;;;;;9.52;1.30;;;15.80;92.90;;;;;;5057693;28;20106;-42
2022/11/24 12:42:42;;;;;;;7.63;1.45;;;15.90;93.40;;;;;;5058470;28;20062;-44
2022/11/24 12:45:08;;;;;;;6.03;1.17;;;16.00;91.90;;;;;;5060152;28;20040;-43
2022/11/24 12:47:55;;;;;;;8.77;1.55;;;16.10;93.20;;;;;;5059316;28;20106;-42
2022/11/24 12:50:26;;;;;;;5.20;0.95;;;16.30;91.50;;;;;;5059833;28;20037;-42
2022/11/24 12:53:27;;;;;;;8.23;0.90;;;16.30;92.10;;;;;;5059770;28;20055;-52
2022/11/24 12:55:56;;;;;;;8.18;1.13;;;16.00;90.20;;;;;;5057506;28;20533;-41
2022/11/24 12:58:52;;;;;;;7.70;1.10;;;15.70;91.80;;;;;;5062681;28;20528;-42
2022/11/24 13:01:28;;;;;;;6.50;0.73;;;15.80;90.70;;;;;;5060183;28;20401;-42
2022/11/24 13:04:08;;;;;;;6.50;1.63;;;15.60;92.30;;;;;;5060487;28;20072;-42
2022/11/24 13:07:11;;;;;;;8.20;1.40;;;15.60;92.40;;;;;;5058259;28;20040;-46
2022/11/24 13:09:37;;;;;;;9.32;1.13;;;15.80;90.40;;;;;;5057332;28;20049;-40
2022/11/24 13:12:13;;;;;;;6.10;1.50;;;15.70;91.30;;;;;;5059031;28;20165;-41